createdAt,value
2018-11-13T00:01:37.614Z,14.93
2018-11-13T00:04:05.900Z,14.90
2018-11-13T00:06:34.419Z,17.83
2018-11-13T00:09:03.709Z,16.63
2018-11-13T00:11:32.091Z,17.60
2018-11-13T00:14:00.239Z,16.60
2018-11-13T00:16:28.715Z,15.70
2018-11-13T00:18:56.991Z,16.87
2018-11-13T00:21:25.211Z,16.17
2018-11-13T00:23:53.452Z,16.10
2018-11-13T00:26:22.602Z,15.77
2018-11-13T00:28:51.021Z,16.27
2018-11-13T00:31:19.679Z,15.73
2018-11-13T00:33:47.918Z,20.00
2018-11-13T00:36:16.149Z,14.63
2018-11-13T00:38:44.689Z,13.80
2018-11-13T00:41:12.979Z,14.53
2018-11-13T00:43:41.196Z,13.63
2018-11-13T00:46:09.447Z,12.53
2018-11-13T00:48:37.756Z,12.50
2018-11-13T00:51:06.240Z,12.50
2018-11-13T00:53:34.412Z,13.53
2018-11-13T00:56:02.791Z,12.67
2018-11-13T00:58:30.978Z,10.70
2018-11-13T01:00:59.308Z,12.17
2018-11-13T01:03:27.612Z,12.53
2018-11-13T01:05:55.820Z,11.90
2018-11-13T01:08:24.157Z,11.23
2018-11-13T01:10:52.352Z,10.73
2018-11-13T01:13:20.634Z,11.70
2018-11-13T01:15:48.794Z,10.43
2018-11-13T01:18:16.960Z,10.93
2018-11-13T01:20:45.128Z,10.87
2018-11-13T01:23:13.340Z,11.30
2018-11-13T01:25:41.505Z,11.77
2018-11-13T01:28:09.687Z,11.33
2018-11-13T01:30:37.867Z,12.53
2018-11-13T01:33:06.280Z,11.37
2018-11-13T01:35:34.667Z,12.30
2018-11-13T01:38:02.864Z,11.80
2018-11-13T01:40:31.263Z,12.27
2018-11-13T01:42:59.447Z,10.50
2018-11-13T01:45:27.611Z,10.60
2018-11-13T01:47:55.801Z,10.83
2018-11-13T01:50:23.956Z,9.73
2018-11-13T01:52:52.139Z,11.07
2018-11-13T01:55:20.371Z,12.80
2018-11-13T01:57:48.488Z,12.60
2018-11-13T02:00:22.904Z,11.20
2018-11-13T02:02:52.638Z,11.13
2018-11-13T02:05:22.432Z,11.27
2018-11-13T02:07:51.163Z,11.10
2018-11-13T02:10:20.107Z,10.27
2018-11-13T02:12:48.806Z,11.47
2018-11-13T02:15:17.484Z,10.57
2018-11-13T02:17:45.710Z,11.30
2018-11-13T02:20:16.412Z,10.10
2018-11-13T02:22:44.654Z,9.57
2018-11-13T02:25:14.687Z,9.90
2018-11-13T02:27:43.482Z,10.30
2018-11-13T02:30:18.003Z,9.40
2018-11-13T02:32:47.021Z,10.80
2018-11-13T02:35:15.995Z,12.37
2018-11-13T02:37:44.386Z,11.70
2018-11-13T02:40:12.963Z,12.43
2018-11-13T02:42:41.194Z,12.13
2018-11-13T02:45:12.395Z,11.33
2018-11-13T02:47:41.094Z,13.00
2018-11-13T02:50:11.811Z,10.60
2018-11-13T02:52:40.074Z,11.30
2018-11-13T02:55:08.739Z,11.33
2018-11-13T02:57:36.972Z,10.23
2018-11-13T03:00:07.875Z,10.80
2018-11-13T03:02:36.327Z,12.93
2018-11-13T03:05:05.668Z,12.87
2018-11-13T03:07:33.896Z,14.47
2018-11-13T03:10:02.515Z,13.90
2018-11-13T03:12:30.789Z,14.93
2018-11-13T03:14:59.026Z,10.60
2018-11-13T03:17:27.251Z,9.87
2018-11-13T03:19:55.501Z,12.13
2018-11-13T03:22:23.731Z,11.17
2018-11-13T03:24:51.956Z,9.23
2018-11-13T03:27:20.178Z,11.20
2018-11-13T03:29:48.428Z,12.63
2018-11-13T03:32:17.345Z,9.87
2018-11-13T03:34:45.584Z,10.47
2018-11-13T03:37:13.872Z,10.80
2018-11-13T03:39:42.104Z,10.90
2018-11-13T03:42:10.373Z,11.60
2018-11-13T03:44:38.552Z,10.47
2018-11-13T03:47:06.819Z,10.10
2018-11-13T03:49:35.007Z,10.37
2018-11-13T03:52:03.215Z,12.77
2018-11-13T03:54:31.616Z,11.60
2018-11-13T03:56:59.783Z,12.37
2018-11-13T03:59:27.986Z,10.07
2018-11-13T04:01:56.151Z,13.57
2018-11-13T04:04:24.568Z,10.47
2018-11-13T04:06:53.903Z,12.50
2018-11-13T04:09:22.051Z,9.40
2018-11-13T04:11:50.261Z,8.77
2018-11-13T04:14:18.452Z,15.57
2018-11-13T04:16:46.842Z,15.87
2018-11-13T04:19:15.009Z,11.87
2018-11-13T04:21:47.397Z,15.37
2018-11-13T04:24:15.554Z,11.60
2018-11-13T04:26:44.222Z,11.70
2018-11-13T04:29:12.391Z,10.80
2018-11-13T04:31:40.604Z,13.20
2018-11-13T04:34:08.787Z,15.00
2018-11-13T04:36:36.959Z,11.27
2018-11-13T04:39:06.208Z,11.23
2018-11-13T04:41:34.415Z,12.03
2018-11-13T04:44:02.577Z,10.67
2018-11-13T04:46:30.764Z,10.73
2018-11-13T04:48:58.928Z,13.37
2018-11-13T04:51:27.147Z,12.43
2018-11-13T04:53:55.318Z,9.70
2018-11-13T04:56:23.716Z,9.33
2018-11-13T04:58:52.683Z,16.90
2018-11-13T05:01:21.080Z,16.13
2018-11-13T05:03:49.490Z,20.33
2018-11-13T05:06:17.695Z,17.67
2018-11-13T05:08:45.861Z,11.60
2018-11-13T05:11:14.056Z,14.07
2018-11-13T05:13:42.223Z,12.50
2018-11-13T05:16:10.406Z,10.10
2018-11-13T05:18:38.896Z,10.17
2018-11-13T05:21:07.287Z,13.37
2018-11-13T05:23:36.279Z,12.03
2018-11-13T05:26:04.454Z,11.60
2018-11-13T05:28:32.626Z,10.50
2018-11-13T05:31:00.832Z,14.93
2018-11-13T05:33:29.017Z,24.77
2018-11-13T05:35:57.237Z,22.50
2018-11-13T05:38:25.435Z,13.63
2018-11-13T05:40:53.823Z,13.00
2018-11-13T05:43:22.021Z,13.77
2018-11-13T05:45:50.175Z,24.57
2018-11-13T05:48:18.358Z,16.37
2018-11-13T05:50:46.575Z,13.43
2018-11-13T05:53:14.769Z,25.03
2018-11-13T05:55:42.935Z,24.83
2018-11-13T05:58:11.686Z,15.63
2018-11-13T06:00:39.888Z,26.13
2018-11-13T06:03:08.079Z,13.27
2018-11-13T06:05:36.244Z,39.33
2018-11-13T06:08:04.433Z,35.63
2018-11-13T06:10:32.699Z,37.90
2018-11-13T06:13:00.879Z,28.53
2018-11-13T06:15:29.062Z,21.07
2018-11-13T06:17:57.457Z,17.43
2018-11-13T06:20:25.618Z,14.93
2018-11-13T06:22:53.821Z,19.37
2018-11-13T06:25:21.971Z,16.67
2018-11-13T06:27:50.431Z,16.60
2018-11-13T06:30:23.879Z,21.13
2018-11-13T06:32:52.183Z,18.53
2018-11-13T06:35:20.367Z,18.90
2018-11-13T06:37:48.663Z,15.53
2018-11-13T06:40:16.992Z,13.87
2018-11-13T06:42:45.299Z,13.93
2018-11-13T06:45:21.197Z,26.33
2018-11-13T06:47:50.396Z,27.20
2018-11-13T06:50:18.591Z,20.97
2018-11-13T06:52:47.764Z,34.60
2018-11-13T06:55:20.848Z,34.37
2018-11-13T06:57:49.035Z,17.17
2018-11-13T07:00:19.648Z,23.30
2018-11-13T07:02:47.897Z,34.43
2018-11-13T07:05:17.317Z,20.87
2018-11-13T07:07:46.013Z,19.13
2018-11-13T07:10:15.620Z,17.00
2018-11-13T07:12:45.226Z,18.63
2018-11-13T07:15:14.828Z,31.83
2018-11-13T07:17:44.747Z,18.70
2018-11-13T07:20:13.057Z,18.97
2018-11-13T07:22:41.631Z,17.57
2018-11-13T07:25:09.819Z,39.27
2018-11-13T07:27:38.061Z,24.53
2018-11-13T07:30:08.140Z,31.83
2018-11-13T07:32:36.477Z,22.77
2018-11-13T07:35:05.923Z,18.47
2018-11-13T07:37:34.110Z,22.17
2018-11-13T07:40:02.267Z,19.77
2018-11-13T07:42:30.439Z,18.03
2018-11-13T07:44:58.885Z,22.00
2018-11-13T07:47:28.048Z,16.60
2018-11-13T07:49:56.526Z,20.47
2018-11-13T07:52:24.911Z,18.13
2018-11-13T07:54:53.104Z,18.67
2018-11-13T07:57:21.458Z,24.90
2018-11-13T07:59:49.672Z,37.53
2018-11-13T08:02:19.135Z,22.23
2018-11-13T08:04:47.320Z,22.83
2018-11-13T08:07:15.944Z,26.07
2018-11-13T08:09:44.252Z,23.17
2018-11-13T08:12:12.619Z,18.33
2018-11-13T08:14:41.005Z,19.63
2018-11-13T08:17:09.172Z,21.63
2018-11-13T08:19:37.563Z,16.73
2018-11-13T08:22:05.852Z,18.00
2018-11-13T08:24:34.348Z,16.33
2018-11-13T08:27:02.793Z,15.43
2018-11-13T08:29:31.347Z,15.00
2018-11-13T08:31:59.724Z,14.50
2018-11-13T08:34:27.908Z,17.10
2018-11-13T08:36:56.076Z,14.90
2018-11-13T08:39:24.239Z,15.20
2018-11-13T08:41:52.423Z,17.47
2018-11-13T08:44:20.937Z,16.67
2018-11-13T08:46:48.984Z,18.47
2018-11-13T08:49:17.392Z,18.10
2018-11-13T08:51:45.552Z,15.83
2018-11-13T08:54:13.764Z,15.27
2018-11-13T08:56:41.920Z,14.40
2018-11-13T08:59:10.130Z,15.30
2018-11-13T09:01:38.252Z,15.77
2018-11-13T09:04:06.427Z,16.17
2018-11-13T09:06:34.604Z,16.97
2018-11-13T09:09:03.000Z,16.73
2018-11-13T09:11:31.215Z,15.07
2018-11-13T09:13:59.389Z,15.77
2018-11-13T09:16:27.553Z,16.07
2018-11-13T09:18:55.842Z,15.90
2018-11-13T09:21:24.179Z,17.20
2018-11-13T09:23:52.339Z,16.73
2018-11-13T09:26:20.863Z,18.80
2018-11-13T09:28:49.047Z,19.00
2018-11-13T09:31:17.342Z,18.07
2018-11-13T09:33:45.672Z,18.57
2018-11-13T09:36:13.848Z,18.87
2018-11-13T09:38:42.008Z,17.90
2018-11-13T09:41:10.187Z,18.57
2018-11-13T09:43:38.729Z,20.03
2018-11-13T09:46:07.167Z,17.63
2018-11-13T09:48:35.281Z,21.17
2018-11-13T09:51:03.461Z,19.60
2018-11-13T09:53:31.859Z,19.43
2018-11-13T09:56:00.164Z,18.77
2018-11-13T09:58:28.488Z,18.40
2018-11-13T10:00:56.707Z,18.20
2018-11-13T10:03:25.210Z,18.57
2018-11-13T10:05:52.869Z,16.73
2018-11-13T10:08:21.035Z,15.93
2018-11-13T10:10:49.275Z,18.47
2018-11-13T10:13:17.648Z,17.23
2018-11-13T10:15:45.840Z,16.93
2018-11-13T10:18:14.218Z,16.87
2018-11-13T10:20:42.147Z,17.93
2018-11-13T10:23:10.320Z,17.23
2018-11-13T10:25:38.528Z,16.83
2018-11-13T10:28:06.907Z,15.73
2018-11-13T10:30:35.082Z,16.00
2018-11-13T10:33:03.252Z,14.77
2018-11-13T10:35:31.664Z,14.13
2018-11-13T10:37:59.867Z,14.37
2018-11-13T10:40:28.176Z,13.83
2018-11-13T10:42:56.242Z,13.80
2018-11-13T10:45:25.925Z,15.97
2018-11-13T10:47:54.345Z,14.47
2018-11-13T10:50:23.681Z,13.60
2018-11-13T10:52:51.825Z,14.33
2018-11-13T10:55:20.639Z,12.60
2018-11-13T10:57:48.815Z,13.37
2018-11-13T11:00:22.413Z,12.30
2018-11-13T11:02:52.876Z,11.70
2018-11-13T11:05:21.345Z,11.00
2018-11-13T11:07:50.450Z,27.23
2018-11-13T11:10:18.618Z,13.67
2018-11-13T11:12:46.834Z,13.50
2018-11-13T11:15:15.178Z,12.43
2018-11-13T11:17:43.573Z,13.23
2018-11-13T11:20:12.735Z,12.60
2018-11-13T11:22:41.001Z,13.23
2018-11-13T11:25:10.573Z,11.87
2018-11-13T11:27:39.111Z,13.37
2018-11-13T11:30:09.695Z,14.13
2018-11-13T11:32:38.411Z,13.87
2018-11-13T11:35:07.183Z,14.67
2018-11-13T11:37:35.996Z,14.43
2018-11-13T11:40:04.477Z,13.90
2018-11-13T11:42:32.876Z,13.43
2018-11-13T11:45:01.367Z,13.67
2018-11-13T11:47:30.327Z,13.83
2018-11-13T11:49:58.520Z,14.10
2018-11-13T11:52:27.060Z,13.90
2018-11-13T11:54:55.304Z,13.93
2018-11-13T11:57:23.915Z,13.57
2018-11-13T11:59:52.112Z,13.37
2018-11-13T12:02:20.746Z,13.37
2018-11-13T12:04:48.942Z,13.53
2018-11-13T12:07:17.235Z,13.03
2018-11-13T12:09:45.584Z,12.87
2018-11-13T12:12:14.070Z,12.67
2018-11-13T12:14:42.583Z,12.83
2018-11-13T12:17:10.759Z,12.03
2018-11-13T12:19:39.199Z,12.40
2018-11-13T12:22:07.736Z,11.87
2018-11-13T12:24:35.948Z,11.90
2018-11-13T12:27:04.143Z,12.17
2018-11-13T12:29:32.423Z,13.40
2018-11-13T12:32:00.839Z,13.10
2018-11-13T12:34:29.109Z,12.20
2018-11-13T12:36:57.324Z,12.30
2018-11-13T12:39:25.538Z,11.97
2018-11-13T12:41:53.725Z,11.00
2018-11-13T12:44:21.926Z,10.47
2018-11-13T12:46:50.215Z,10.57
2018-11-13T12:49:18.469Z,10.53
2018-11-13T12:51:52.391Z,11.33
2018-11-13T12:54:20.619Z,11.23
2018-11-13T12:56:48.828Z,9.67
2018-11-13T12:59:17.045Z,9.50
2018-11-13T13:01:45.243Z,9.80
2018-11-13T13:04:13.713Z,10.53
2018-11-13T13:06:41.880Z,9.17
2018-11-13T13:09:10.693Z,11.07
2018-11-13T13:11:39.271Z,9.30
2018-11-13T13:14:15.360Z,8.93
2018-11-13T13:16:43.627Z,10.60
2018-11-13T13:19:11.938Z,9.30
2018-11-13T13:21:40.234Z,10.03
2018-11-13T13:24:08.445Z,9.13
2018-11-13T13:26:37.214Z,9.93
2018-11-13T13:29:05.854Z,10.43
2018-11-13T13:31:34.330Z,11.60
2018-11-13T13:34:02.620Z,11.03
2018-11-13T13:36:30.819Z,13.13
2018-11-13T13:38:59.052Z,13.20
2018-11-13T13:41:27.323Z,13.67
2018-11-13T13:43:55.585Z,13.50
2018-11-13T13:46:23.745Z,13.67
2018-11-13T13:48:51.957Z,12.57
2018-11-13T13:51:20.420Z,12.70
2018-11-13T13:53:48.719Z,12.37
2018-11-13T13:56:17.188Z,12.40
2018-11-13T13:58:45.461Z,13.53
2018-11-13T14:01:13.925Z,13.57
2018-11-13T14:03:42.163Z,13.27
2018-11-13T14:06:10.707Z,12.90
2018-11-13T14:08:38.933Z,13.90
2018-11-13T14:13:57.570Z,11.47
2018-11-13T14:16:25.752Z,10.93
2018-11-13T14:18:54.175Z,12.03
2018-11-13T14:21:22.374Z,11.70
2018-11-13T14:23:50.563Z,12.17
2018-11-13T14:26:18.757Z,11.30
2018-11-13T14:28:47.169Z,11.90
2018-11-13T14:31:15.307Z,11.33
2018-11-13T14:33:43.504Z,12.73
2018-11-13T14:39:02.349Z,11.83
2018-11-13T14:41:30.818Z,11.47
2018-11-13T14:43:59.030Z,12.33
2018-11-13T14:46:27.281Z,11.77
2018-11-13T14:48:55.664Z,12.40
2018-11-13T14:51:23.854Z,12.40
2018-11-13T14:53:52.760Z,12.93
2018-11-13T14:56:20.954Z,13.20
2018-11-13T14:58:49.163Z,12.57
2018-11-13T15:01:17.585Z,13.23
2018-11-13T15:03:46.019Z,13.60
2018-11-13T15:06:14.440Z,12.67
2018-11-13T15:08:42.637Z,12.97
2018-11-13T15:11:10.839Z,11.83
2018-11-13T15:13:39.296Z,12.00
2018-11-13T15:16:07.731Z,18.77
2018-11-13T15:18:35.938Z,15.37
2018-11-13T15:21:04.163Z,16.53
2018-11-13T15:23:32.596Z,14.90
2018-11-13T15:26:01.048Z,15.73
2018-11-13T15:28:29.242Z,16.53
2018-11-13T15:30:57.777Z,14.10
2018-11-13T15:33:25.908Z,14.87
2018-11-13T15:35:54.126Z,12.43
2018-11-13T15:38:22.330Z,14.07
2018-11-13T15:40:50.561Z,10.40
2018-11-13T15:43:18.999Z,12.07
2018-11-13T15:45:47.265Z,12.77
2018-11-13T15:48:15.894Z,11.13
2018-11-13T15:50:44.135Z,10.17
2018-11-13T15:53:12.878Z,11.60
2018-11-13T15:55:41.357Z,10.83
2018-11-13T15:58:09.624Z,10.43
2018-11-13T16:00:39.825Z,11.97
2018-11-13T16:03:15.124Z,10.93
2018-11-13T16:05:47.067Z,11.57
2018-11-13T16:08:15.287Z,8.67
2018-11-13T16:10:43.573Z,9.93
2018-11-13T16:13:12.197Z,9.10
2018-11-13T16:15:40.557Z,9.47
2018-11-13T16:18:10.072Z,8.47
2018-11-13T16:20:38.287Z,8.17
2018-11-13T16:23:06.613Z,9.50
2018-11-13T16:25:34.911Z,8.53
2018-11-13T16:28:03.125Z,8.13
2018-11-13T16:30:33.466Z,9.17
2018-11-13T16:33:02.488Z,8.90
2018-11-13T16:35:31.429Z,8.07
2018-11-13T16:38:01.283Z,7.87
2018-11-13T16:40:30.898Z,8.80
2018-11-13T16:42:59.275Z,8.73
2018-11-13T16:45:28.383Z,7.10
2018-11-13T16:47:57.099Z,7.73
2018-11-13T16:50:26.376Z,7.47
2018-11-13T16:52:54.795Z,6.90
2018-11-13T16:55:28.332Z,6.53
2018-11-13T16:57:57.426Z,6.37
2018-11-13T17:00:25.871Z,6.50
2018-11-13T17:02:53.952Z,6.50
2018-11-13T17:05:23.628Z,7.70
2018-11-13T17:07:51.843Z,6.40
2018-11-13T17:10:21.488Z,6.87
2018-11-13T17:12:50.168Z,6.47
2018-11-13T17:15:19.677Z,6.30
2018-11-13T17:17:48.836Z,5.93
2018-11-13T17:20:17.111Z,6.40
2018-11-13T17:22:46.019Z,6.40
2018-11-13T17:25:16.459Z,6.40
2018-11-13T17:27:45.546Z,6.27
2018-11-13T17:30:19.406Z,10.97
2018-11-13T17:32:46.806Z,11.40
2018-11-13T17:35:16.527Z,12.60
2018-11-13T17:37:45.669Z,12.23
2018-11-13T17:40:16.151Z,10.63
2018-11-13T17:42:45.025Z,9.47
2018-11-13T17:45:16.193Z,9.03
2018-11-13T17:47:45.047Z,8.17
2018-11-13T17:50:20.005Z,8.33
2018-11-13T17:52:48.784Z,8.07
2018-11-13T17:55:17.675Z,7.00
2018-11-13T17:57:47.332Z,6.80
2018-11-13T18:00:25.570Z,6.80
2018-11-13T18:02:53.987Z,6.57
2018-11-13T18:05:23.239Z,7.30
2018-11-13T18:07:52.063Z,7.33
2018-11-13T18:10:20.415Z,7.60
2018-11-13T18:12:48.727Z,8.07
2018-11-13T18:15:19.294Z,7.83
2018-11-13T18:17:47.914Z,7.40
2018-11-13T18:20:18.304Z,7.37
2018-11-13T18:22:46.903Z,7.00
2018-11-13T18:25:15.447Z,7.33
2018-11-13T18:27:45.159Z,7.40
2018-11-13T18:30:28.119Z,8.03
2018-11-13T18:32:57.280Z,8.37
2018-11-13T18:35:26.872Z,9.20
2018-11-13T18:37:56.485Z,11.87
2018-11-13T18:40:25.350Z,11.33
2018-11-13T18:42:54.755Z,13.23
2018-11-13T18:45:26.273Z,10.37
2018-11-13T18:47:54.751Z,10.70
2018-11-13T18:50:25.453Z,12.70
2018-11-13T18:52:53.831Z,9.40
2018-11-13T18:55:22.416Z,7.30
2018-11-13T18:57:51.541Z,7.00
2018-11-13T19:00:22.549Z,7.43
2018-11-13T19:02:51.132Z,6.90
2018-11-13T19:05:20.116Z,7.10
2018-11-13T19:07:49.128Z,14.80
2018-11-13T19:10:25.340Z,8.07
2018-11-13T19:12:54.592Z,6.77
2018-11-13T19:15:22.707Z,6.33
2018-11-13T19:17:51.022Z,5.80
2018-11-13T19:20:20.458Z,5.27
2018-11-13T19:22:48.601Z,5.63
2018-11-13T19:25:20.203Z,9.93
2018-11-13T19:27:48.890Z,5.87
2018-11-13T19:30:17.922Z,6.27
2018-11-13T19:32:46.043Z,5.43
2018-11-13T19:35:14.763Z,5.80
2018-11-13T19:37:42.904Z,13.00
2018-11-13T19:40:13.852Z,9.80
2018-11-13T19:42:42.646Z,11.47
2018-11-13T19:45:10.906Z,9.43
2018-11-13T19:47:39.551Z,8.87
2018-11-13T19:50:09.712Z,8.03
2018-11-13T19:52:38.170Z,8.80
2018-11-13T19:55:07.296Z,7.37
2018-11-13T19:57:35.602Z,7.87
2018-11-13T20:00:04.164Z,24.33
2018-11-13T20:02:32.382Z,15.83
2018-11-13T20:05:00.612Z,10.07
2018-11-13T20:07:28.827Z,8.57
2018-11-13T20:09:57.105Z,12.50
2018-11-13T20:12:25.245Z,9.20
2018-11-13T20:14:53.529Z,10.83
2018-11-13T20:17:21.727Z,9.10
2018-11-13T20:19:49.924Z,11.77
2018-11-13T20:22:18.381Z,11.13
2018-11-13T20:24:46.860Z,10.20
2018-11-13T20:27:15.173Z,11.03
2018-11-13T20:29:43.365Z,10.73
2018-11-13T20:32:11.576Z,8.50
2018-11-13T20:34:39.763Z,11.13
2018-11-13T20:37:07.955Z,13.23
2018-11-13T20:39:36.206Z,11.20
2018-11-13T20:42:04.407Z,10.53
2018-11-13T20:44:32.622Z,13.30
2018-11-13T20:47:01.054Z,8.57
2018-11-13T20:49:29.242Z,16.47
2018-11-13T20:51:57.468Z,16.90
2018-11-13T20:54:25.714Z,12.73
2018-11-13T20:56:53.910Z,12.27
2018-11-13T20:59:22.164Z,10.00
2018-11-13T21:01:58.095Z,10.00
2018-11-13T21:04:26.274Z,8.60
2018-11-13T21:06:54.477Z,8.80
2018-11-13T21:09:22.895Z,7.63
2018-11-13T21:11:51.107Z,8.07
2018-11-13T21:14:19.303Z,7.90
2018-11-13T21:16:47.575Z,10.37
2018-11-13T21:19:15.699Z,7.87
2018-11-13T21:21:44.288Z,10.40
2018-11-13T21:24:12.735Z,10.33
2018-11-13T21:26:41.058Z,10.93
2018-11-13T21:29:10.592Z,11.43
2018-11-13T21:31:39.240Z,12.93
2018-11-13T21:34:07.651Z,13.77
2018-11-13T21:36:35.846Z,15.27
2018-11-13T21:39:06.471Z,11.97
2018-11-13T21:41:34.900Z,13.07
2018-11-13T21:44:03.104Z,14.50
2018-11-13T21:46:31.304Z,14.23
2018-11-13T21:48:59.732Z,15.67
2018-11-13T21:51:27.931Z,13.30
2018-11-13T21:53:56.118Z,15.13
2018-11-13T21:56:24.311Z,13.90
2018-11-13T21:58:52.507Z,14.27
2018-11-13T22:01:20.968Z,14.87
2018-11-13T22:03:49.171Z,13.73
2018-11-13T22:06:17.370Z,15.50
2018-11-13T22:08:45.568Z,15.67
2018-11-13T22:11:13.989Z,15.50
2018-11-13T22:13:42.216Z,16.63
2018-11-13T22:16:10.412Z,20.47
2018-11-13T22:18:39.058Z,34.50
2018-11-13T22:21:07.497Z,24.27
2018-11-13T22:23:35.979Z,27.37
2018-11-13T22:26:05.030Z,30.63
2018-11-13T22:28:33.522Z,30.47
2018-11-13T22:31:01.622Z,31.07
2018-11-13T22:33:29.820Z,33.77
2018-11-13T22:35:58.055Z,33.90
2018-11-13T22:38:26.279Z,31.97
2018-11-13T22:41:07.166Z,31.03
2018-11-13T22:43:35.340Z,27.97
2018-11-13T22:46:03.554Z,27.10
2018-11-13T22:48:31.784Z,24.17
2018-11-13T22:51:00.090Z,27.67
2018-11-13T22:53:28.191Z,25.17
2018-11-13T22:55:56.395Z,25.07
2018-11-13T22:58:24.619Z,25.53
2018-11-13T23:00:52.817Z,25.17
2018-11-13T23:03:21.008Z,25.77
2018-11-13T23:05:49.939Z,25.47
2018-11-13T23:08:19.367Z,26.90
2018-11-13T23:10:48.223Z,36.63
2018-11-13T23:13:16.430Z,41.73
2018-11-13T23:15:44.635Z,42.53
2018-11-13T23:18:12.823Z,43.83
2018-11-13T23:20:41.022Z,44.20
2018-11-13T23:23:09.237Z,46.83
2018-11-13T23:25:37.683Z,45.60
2018-11-13T23:28:06.014Z,43.37
2018-11-13T23:30:34.166Z,39.63
2018-11-13T23:33:02.392Z,41.67
2018-11-13T23:35:30.503Z,39.17
2018-11-13T23:37:59.549Z,37.40
2018-11-13T23:40:28.640Z,41.53
2018-11-13T23:42:56.848Z,40.67
2018-11-13T23:45:26.004Z,42.13
2018-11-13T23:47:54.222Z,43.43
2018-11-13T23:50:23.122Z,41.83
2018-11-13T23:52:52.163Z,39.27
2018-11-13T23:55:20.391Z,41.77
2018-11-13T23:57:48.810Z,38.57
